^^
Station Historical Data
Daily Summary for November 30, 2017 Units:  Both    English   Metric
« Previous Day
Next Day »
Daily Weekly Monthly Yearly Custom
  High: Low: Average:
Temperature: TemperatureF °F /  -17.8 °C 61.3 °F /  16.3 °C 79.1 °F /  26.2 °C
Dew Point: DewpointF °F /  -17.8 °C 22.8 °F /  -5.1 °C 32 °F /  0 °C
Humidity: Humidity% 10% 21%
Wind Speed: WindSpeedMPHmph /  0km/h - 1.6mph /  2.6km/h
Wind Gust: WindSpeedGustMPHmph /  0km/h - -
Wind- - SSW
Pressure: PressureIn in /  0 hPa 30.10 in /  1019.2 hPa -
Precipitation: 0.00 in /  0 mm    
Historical Graphs
 
 
Tabular Data for November 30, 2017
Time Temperature Dew Point Pressure Wind Wind Speed Wind Gust Humidity Rainfall Rate (Hourly) solar Conditions
TemperatureF °F /  -17.8 °C DewpointF °F /  -17.8 °C PressureInin /  0hPa Calm     Humidity% HourlyPrecipInin /  0mm SolarRadiationWatts/m^2 W/m2 Conditions
00:05 73.6 °F /  23.1 °C 33.4 °F /  0.8 °C 30.24in /  1023.9hPa Calm   2.0mph /  3.2km/h 23% 0.00in /  0mm 0.0 W/m2
00:10 73.4 °F /  23 °C 33.3 °F /  0.7 °C 30.24in /  1023.9hPa Calm     23% 0.00in /  0mm 0.0 W/m2
00:15 73.2 °F /  22.9 °C 33.3 °F /  0.7 °C 30.24in /  1023.9hPa Calm   1.0mph /  1.6km/h 23% 0.00in /  0mm 0.0 W/m2
00:25 72.7 °F /  22.6 °C 32.7 °F /  0.4 °C 30.25in /  1024.3hPa Calm   3.0mph /  4.8km/h 23% 0.00in /  0mm 0.0 W/m2
00:30 72.3 °F /  22.4 °C 33.4 °F /  0.8 °C 30.25in /  1024.3hPa Calm     24% 0.00in /  0mm 0.0 W/m2
00:35 72.0 °F /  22.2 °C 33.3 °F /  0.7 °C 30.25in /  1024.3hPa Calm   2.0mph /  3.2km/h 24% 0.00in /  0mm 0.0 W/m2
00:40 71.8 °F /  22.1 °C 33.1 °F /  0.6 °C 30.25in /  1024.3hPa Calm     24% 0.00in /  0mm 0.0 W/m2
00:51 71.1 °F /  21.7 °C 33.4 °F /  0.8 °C 30.24in /  1023.9hPa Calm   1.0mph /  1.6km/h 25% 0.00in /  0mm 0.0 W/m2
00:56 70.9 °F /  21.6 °C 33.3 °F /  0.7 °C 30.24in /  1023.9hPa Calm   2.0mph /  3.2km/h 25% 0.00in /  0mm 0.0 W/m2
01:01 70.5 °F /  21.4 °C 33.1 °F /  0.6 °C 30.24in /  1023.9hPa Calm     25% 0.00in /  0mm 0.0 W/m2
01:06 70.2 °F /  21.2 °C 32.7 °F /  0.4 °C 30.24in /  1023.9hPa Calm     25% 0.00in /  0mm 0.0 W/m2
01:11 70.0 °F /  21.1 °C 33.4 °F /  0.8 °C 30.24in /  1023.9hPa Calm     26% 0.00in /  0mm 0.0 W/m2
01:16 69.6 °F /  20.9 °C 33.3 °F /  0.7 °C 30.24in /  1023.9hPa Calm   1.0mph /  1.6km/h 26% 0.00in /  0mm 0.0 W/m2
01:21 69.3 °F /  20.7 °C 33.8 °F /  1 °C 30.24in /  1023.9hPa Calm   1.0mph /  1.6km/h 27% 0.00in /  0mm 0.0 W/m2
01:26 68.9 °F /  20.5 °C 33.6 °F /  0.9 °C 30.24in /  1023.9hPa Calm     27% 0.00in /  0mm 0.0 W/m2
01:32 68.5 °F /  20.3 °C 34.2 °F /  1.2 °C 30.23in /  1023.6hPa Calm     28% 0.00in /  0mm 0.0 W/m2
01:37 68.4 °F /  20.2 °C 34.0 °F /  1.1 °C 30.23in /  1023.6hPa Calm     28% 0.00in /  0mm 0.0 W/m2
01:43 68.0 °F /  20 °C 33.6 °F /  0.9 °C 30.23in /  1023.6hPa Calm     28% 0.00in /  0mm 0.0 W/m2
01:48 67.6 °F /  19.8 °C 33.4 °F /  0.8 °C 30.23in /  1023.6hPa Calm     28% 0.00in /  0mm 0.0 W/m2
01:53 67.5 °F /  19.7 °C 34.2 °F /  1.2 °C 30.23in /  1023.6hPa Calm     29% 0.00in /  0mm 0.0 W/m2
02:13 66.0 °F /  18.9 °C 32.9 °F /  0.5 °C 30.23in /  1023.6hPa Calm   1.0mph /  1.6km/h 29% 0.00in /  0mm 0.0 W/m2
02:19 65.8 °F /  18.8 °C 33.6 °F /  0.9 °C 30.23in /  1023.6hPa SSE 0.9mph /  1.4km/h 2.0mph /  3.2km/h 30% 0.00in /  0mm 0.0 W/m2
02:30 65.5 °F /  18.6 °C 33.3 °F /  0.7 °C 30.23in /  1023.6hPa Calm   1.0mph /  1.6km/h 30% 0.00in /  0mm 0.0 W/m2
02:31 65.5 °F /  18.6 °C 34.0 °F /  1.1 °C 30.23in /  1023.6hPa Calm   1.0mph /  1.6km/h 31% 0.00in /  0mm 0.0 W/m2
02:41 65.1 °F /  18.4 °C 33.8 °F /  1 °C 30.23in /  1023.6hPa Calm     31% 0.00in /  0mm 0.0 W/m2
02:51 64.8 °F /  18.2 °C 34.2 °F /  1.2 °C 30.23in /  1023.6hPa Calm     32% 0.00in /  0mm 0.0 W/m2
02:56 64.6 °F /  18.1 °C 34.9 °F /  1.6 °C 30.23in /  1023.6hPa SSE 0.9mph /  1.4km/h 1.0mph /  1.6km/h 33% 0.00in /  0mm 0.0 W/m2
03:01 64.6 °F /  18.1 °C 34.9 °F /  1.6 °C 30.23in /  1023.6hPa SSE 0.9mph /  1.4km/h 5.0mph /  8km/h 33% 0.00in /  0mm 0.0 W/m2
03:12 64.6 °F /  18.1 °C 37.0 °F /  2.8 °C 30.22in /  1023.2hPa SSE 2.0mph /  3.2km/h 2.0mph /  3.2km/h 36% 0.00in /  0mm 0.0 W/m2
03:32 64.2 °F /  17.9 °C 36.7 °F /  2.6 °C 30.22in /  1023.2hPa Calm   1.0mph /  1.6km/h 36% 0.00in /  0mm 0.0 W/m2
03:37 64.2 °F /  17.9 °C 37.4 °F /  3 °C 30.22in /  1023.2hPa Calm     37% 0.00in /  0mm 0.0 W/m2
03:42 64.0 °F /  17.8 °C 37.2 °F /  2.9 °C 30.22in /  1023.2hPa Calm     37% 0.00in /  0mm 0.0 W/m2
03:48 63.9 °F /  17.7 °C 37.8 °F /  3.2 °C 30.22in /  1023.2hPa Calm     38% 0.00in /  0mm 0.0 W/m2
03:53 63.9 °F /  17.7 °C 39.0 °F /  3.9 °C 30.22in /  1023.2hPa Calm   1.0mph /  1.6km/h 40% 0.00in /  0mm 0.0 W/m2
03:58 63.7 °F /  17.6 °C 38.8 °F /  3.8 °C 30.22in /  1023.2hPa Calm     40% 0.00in /  0mm 0.0 W/m2
04:08 63.3 °F /  17.4 °C 39.2 °F /  4 °C 30.22in /  1023.2hPa Calm     41% 0.00in /  0mm 0.0 W/m2
04:13 63.3 °F /  17.4 °C 39.2 °F /  4 °C 30.22in /  1023.2hPa Calm     41% 0.00in /  0mm 0.0 W/m2
04:18 63.1 °F /  17.3 °C 41.5 °F /  5.3 °C 30.22in /  1023.2hPa Calm   1.0mph /  1.6km/h 45% 0.00in /  0mm 0.0 W/m2
04:34 62.8 °F /  17.1 °C 40.5 °F /  4.7 °C 30.22in /  1023.2hPa Calm   1.0mph /  1.6km/h 44% 0.00in /  0mm 0.0 W/m2
04:39 62.8 °F /  17.1 °C 39.4 °F /  4.1 °C 30.22in /  1023.2hPa Calm   2.0mph /  3.2km/h 42% 0.00in /  0mm 0.0 W/m2
04:44 62.4 °F /  16.9 °C 39.6 °F /  4.2 °C 30.22in /  1023.2hPa Calm   1.0mph /  1.6km/h 43% 0.00in /  0mm 0.0 W/m2
04:49 62.4 °F /  16.9 °C 39.6 °F /  4.2 °C 30.22in /  1023.2hPa Calm   1.0mph /  1.6km/h 43% 0.00in /  0mm 0.0 W/m2
04:54 62.2 °F /  16.8 °C 40.1 °F /  4.5 °C 30.22in /  1023.2hPa Calm     44% 0.00in /  0mm 0.0 W/m2
04:59 62.2 °F /  16.8 °C 40.6 °F /  4.8 °C 30.22in /  1023.2hPa Calm   1.0mph /  1.6km/h 45% 0.00in /  0mm 0.0 W/m2
05:04 62.1 °F /  16.7 °C 41.5 °F /  5.3 °C 30.22in /  1023.2hPa Calm     47% 0.00in /  0mm 0.0 W/m2
05:15 61.9 °F /  16.6 °C 41.4 °F /  5.2 °C 30.22in /  1023.2hPa Calm   1.0mph /  1.6km/h 47% 0.00in /  0mm 0.0 W/m2
05:20 61.9 °F /  16.6 °C 40.8 °F /  4.9 °C 30.22in /  1023.2hPa Calm   1.0mph /  1.6km/h 46% 0.00in /  0mm 0.0 W/m2
05:25 61.7 °F /  16.5 °C 40.1 °F /  4.5 °C 30.22in /  1023.2hPa Calm     45% 0.00in /  0mm 0.0 W/m2
05:30 61.5 °F /  16.4 °C 39.4 °F /  4.1 °C 30.22in /  1023.2hPa Calm   1.0mph /  1.6km/h 44% 0.00in /  0mm 0.0 W/m2
05:35 61.5 °F /  16.4 °C 39.4 °F /  4.1 °C 30.22in /  1023.2hPa Calm   1.0mph /  1.6km/h 44% 0.00in /  0mm 0.0 W/m2
05:40 61.3 °F /  16.3 °C 38.7 °F /  3.7 °C 30.22in /  1023.2hPa East 2.0mph /  3.2km/h 3.0mph /  4.8km/h 43% 0.00in /  0mm 0.0 W/m2
05:45 61.3 °F /  16.3 °C 38.7 °F /  3.7 °C 30.23in /  1023.6hPa East 0.9mph /  1.4km/h 1.0mph /  1.6km/h 43% 0.00in /  0mm 0.0 W/m2
05:50 61.3 °F /  16.3 °C 39.2 °F /  4 °C 30.23in /  1023.6hPa Calm   1.0mph /  1.6km/h 44% 0.00in /  0mm 0.0 W/m2
06:05 61.5 °F /  16.4 °C 40.5 °F /  4.7 °C 30.24in /  1023.9hPa Calm   1.0mph /  1.6km/h 46% 0.00in /  0mm 7.0 W/m2
06:11 61.5 °F /  16.4 °C 40.5 °F /  4.7 °C 30.24in /  1023.9hPa Calm   1.0mph /  1.6km/h 46% 0.00in /  0mm 9.0 W/m2
06:16 61.5 °F /  16.4 °C 40.5 °F /  4.7 °C 30.24in /  1023.9hPa ENE 2.0mph /  3.2km/h 3.0mph /  4.8km/h 46% 0.00in /  0mm 11.0 W/m2
06:21 61.7 °F /  16.5 °C 40.6 °F /  4.8 °C 30.24in /  1023.9hPa Calm     46% 0.00in /  0mm 12.0 W/m2
06:26 61.9 °F /  16.6 °C 40.8 °F /  4.9 °C 30.24in /  1023.9hPa Calm     46% 0.00in /  0mm 16.0 W/m2
06:41 62.2 °F /  16.8 °C 40.6 °F /  4.8 °C 30.24in /  1023.9hPa Calm     45% 0.00in /  0mm 21.0 W/m2
06:46 62.4 °F /  16.9 °C 40.3 °F /  4.6 °C 30.24in /  1023.9hPa Calm     44% 0.00in /  0mm 21.0 W/m2
06:57 63.0 °F /  17.2 °C 40.6 °F /  4.8 °C 30.25in /  1024.3hPa Calm     44% 0.00in /  0mm 25.0 W/m2
07:02 63.3 °F /  17.4 °C 39.2 °F /  4 °C 30.25in /  1024.3hPa Calm     41% 0.00in /  0mm 26.0 W/m2
07:07 63.7 °F /  17.6 °C 40.8 °F /  4.9 °C 30.25in /  1024.3hPa Calm     43% 0.00in /  0mm 28.0 W/m2
07:17 64.9 °F /  18.3 °C 40.1 °F /  4.5 °C 30.25in /  1024.3hPa Calm     40% 0.00in /  0mm 32.0 W/m2
07:27 66.0 °F /  18.9 °C 38.3 °F /  3.5 °C 30.25in /  1024.3hPa ENE 0.9mph /  1.4km/h 1.0mph /  1.6km/h 36% 0.00in /  0mm 248.0 W/m2
07:32 67.3 °F /  19.6 °C 37.2 °F /  2.9 °C 30.25in /  1024.3hPa Calm     33% 0.00in /  0mm 313.0 W/m2
07:43 70.2 °F /  21.2 °C 33.6 °F /  0.9 °C 30.25in /  1024.3hPa SSW 2.0mph /  3.2km/h 3.0mph /  4.8km/h 26% 0.00in /  0mm 357.0 W/m2
08:08 76.6 °F /  24.8 °C 30.0 °F /  -1.1 °C 30.26in /  1024.6hPa SSW 0.9mph /  1.4km/h 3.0mph /  4.8km/h 18% 0.00in /  0mm 469.0 W/m2
08:13 77.4 °F /  25.2 °C 29.1 °F /  -1.6 °C 30.26in /  1024.6hPa East 2.9mph /  4.7km/h 5.0mph /  8km/h 17% 0.00in /  0mm 487.0 W/m2
08:18 78.1 °F /  25.6 °C 28.2 °F /  -2.1 °C 30.25in /  1024.3hPa SE 4.0mph /  6.4km/h 8.0mph /  12.9km/h 16% 0.00in /  0mm 547.0 W/m2
08:29 79.2 °F /  26.2 °C 27.5 °F /  -2.5 °C 30.26in /  1024.6hPa SE 4.0mph /  6.4km/h 5.0mph /  8km/h 15% 0.00in /  0mm 594.0 W/m2
08:35 79.5 °F /  26.4 °C 27.9 °F /  -2.3 °C 30.26in /  1024.6hPa East 6.0mph /  9.7km/h 9.0mph /  14.5km/h 15% 0.00in /  0mm 592.0 W/m2
08:40 79.7 °F /  26.5 °C 29.5 °F /  -1.4 °C 30.25in /  1024.3hPa ESE 0.9mph /  1.4km/h 7.0mph /  11.3km/h 16% 0.00in /  0mm 587.0 W/m2
08:45 80.1 °F /  26.7 °C 29.8 °F /  -1.2 °C 30.25in /  1024.3hPa SSE 2.9mph /  4.7km/h 10.0mph /  16.1km/h 16% 0.00in /  0mm 596.0 W/m2
08:50 80.2 °F /  26.8 °C 28.4 °F /  -2 °C 30.25in /  1024.3hPa South 2.0mph /  3.2km/h 13.0mph /  20.9km/h 15% 0.00in /  0mm 615.0 W/m2
08:55 80.4 °F /  26.9 °C 30.2 °F /  -1 °C 30.25in /  1024.3hPa South 2.9mph /  4.7km/h 11.0mph /  17.7km/h 16% 0.00in /  0mm 635.0 W/m2
09:05 81.1 °F /  27.3 °C 29.1 °F /  -1.6 °C 30.26in /  1024.6hPa SE 2.9mph /  4.7km/h 15.0mph /  24.1km/h 15% 0.00in /  0mm 670.0 W/m2
09:11 81.1 °F /  27.3 °C 27.5 °F /  -2.5 °C 30.26in /  1024.6hPa SE 4.9mph /  7.9km/h 15.0mph /  24.1km/h 14% 0.00in /  0mm 684.0 W/m2
09:21 81.9 °F /  27.7 °C 26.2 °F /  -3.2 °C 30.25in /  1024.3hPa SW 2.0mph /  3.2km/h 10.0mph /  16.1km/h 13% 0.00in /  0mm 715.0 W/m2
09:26 82.2 °F /  27.9 °C 24.6 °F /  -4.1 °C 30.25in /  1024.3hPa SSE 8.1mph /  13km/h 13.0mph /  20.9km/h 12% 0.00in /  0mm 738.0 W/m2
09:31 82.6 °F /  28.1 °C 22.8 °F /  -5.1 °C 30.26in /  1024.6hPa South 4.9mph /  7.9km/h 9.0mph /  14.5km/h 11% 0.00in /  0mm 754.0 W/m2
09:36 82.9 °F /  28.3 °C 25.2 °F /  -3.8 °C 30.26in /  1024.6hPa SW 2.9mph /  4.7km/h 10.0mph /  16.1km/h 12% 0.00in /  0mm 768.0 W/m2
09:41 83.5 °F /  28.6 °C 25.5 °F /  -3.6 °C 30.26in /  1024.6hPa SSW 2.9mph /  4.7km/h 10.0mph /  16.1km/h 12% 0.00in /  0mm 789.0 W/m2
09:46 83.7 °F /  28.7 °C 23.5 °F /  -4.7 °C 30.26in /  1024.6hPa South 4.9mph /  7.9km/h 6.0mph /  9.7km/h 11% 0.00in /  0mm 809.0 W/m2
09:51 84.0 °F /  28.9 °C 25.9 °F /  -3.4 °C 30.26in /  1024.6hPa SW 0.9mph /  1.4km/h 6.0mph /  9.7km/h 12% 0.00in /  0mm 867.0 W/m2
09:56 84.4 °F /  29.1 °C 24.1 °F /  -4.4 °C 30.26in /  1024.6hPa SSW 4.0mph /  6.4km/h 8.0mph /  12.9km/h 11% 0.00in /  0mm 849.0 W/m2
10:06 84.9 °F /  29.4 °C 26.6 °F /  -3 °C 30.25in /  1024.3hPa South 4.0mph /  6.4km/h 8.0mph /  12.9km/h 12% 0.00in /  0mm 863.0 W/m2
10:12 85.3 °F /  29.6 °C 24.8 °F /  -4 °C 30.25in /  1024.3hPa WSW 0.9mph /  1.4km/h 5.0mph /  8km/h 11% 0.00in /  0mm 872.0 W/m2
10:17 85.5 °F /  29.7 °C 25.0 °F /  -3.9 °C 30.25in /  1024.3hPa SE 4.9mph /  7.9km/h 8.0mph /  12.9km/h 11% 0.00in /  0mm 888.0 W/m2
10:22 85.6 °F /  29.8 °C 25.2 °F /  -3.8 °C 30.25in /  1024.3hPa West 2.0mph /  3.2km/h 8.0mph /  12.9km/h 11% 0.00in /  0mm 900.0 W/m2
10:27 85.6 °F /  29.8 °C 27.1 °F /  -2.7 °C 30.25in /  1024.3hPa West 2.9mph /  4.7km/h 7.0mph /  11.3km/h 12% 0.00in /  0mm 918.0 W/m2
10:32 85.8 °F /  29.9 °C 27.3 °F /  -2.6 °C 30.25in /  1024.3hPa WNW 2.9mph /  4.7km/h 5.0mph /  8km/h 12% 0.00in /  0mm 925.0 W/m2
10:33 85.8 °F /  29.9 °C 27.3 °F /  -2.6 °C 30.25in /  1024.3hPa SW 2.0mph /  3.2km/h 5.0mph /  8km/h 12% 0.00in /  0mm 928.0 W/m2
10:38 85.8 °F /  29.9 °C 27.3 °F /  -2.6 °C 30.25in /  1024.3hPa WSW 2.9mph /  4.7km/h 5.0mph /  8km/h 12% 0.00in /  0mm 937.0 W/m2
10:43 86.4 °F /  30.2 °C 27.7 °F /  -2.4 °C 30.25in /  1024.3hPa SSW 6.9mph /  11.1km/h 8.0mph /  12.9km/h 12% 0.00in /  0mm 949.0 W/m2
10:49 86.4 °F /  30.2 °C 25.7 °F /  -3.5 °C 30.25in /  1024.3hPa WNW 2.9mph /  4.7km/h 8.0mph /  12.9km/h 11% 0.00in /  0mm 960.0 W/m2
10:54 86.4 °F /  30.2 °C 25.7 °F /  -3.5 °C 30.25in /  1024.3hPa West 2.9mph /  4.7km/h 5.0mph /  8km/h 11% 0.00in /  0mm 979.0 W/m2
10:59 86.7 °F /  30.4 °C 25.9 °F /  -3.4 °C 30.25in /  1024.3hPa SE 0.9mph /  1.4km/h 4.0mph /  6.4km/h 11% 0.00in /  0mm 1025.0 W/m2
11:09 87.3 °F /  30.7 °C 26.4 °F /  -3.1 °C 30.24in /  1023.9hPa West 0.9mph /  1.4km/h 7.0mph /  11.3km/h 11% 0.00in /  0mm 721.0 W/m2
11:19 87.4 °F /  30.8 °C 26.4 °F /  -3.1 °C 30.24in /  1023.9hPa NW 4.9mph /  7.9km/h 6.0mph /  9.7km/h 11% 0.00in /  0mm 1213.0 W/m2
11:24 88.2 °F /  31.2 °C 29.1 °F /  -1.6 °C 30.24in /  1023.9hPa Calm   3.0mph /  4.8km/h 12% 0.00in /  0mm 1083.0 W/m2
11:29 88.9 °F /  31.6 °C 27.5 °F /  -2.5 °C 30.24in /  1023.9hPa WNW 2.9mph /  4.7km/h 9.0mph /  14.5km/h 11% 0.00in /  0mm 1078.0 W/m2
11:34 89.8 °F /  32.1 °C 25.9 °F /  -3.4 °C 30.24in /  1023.9hPa NW 2.9mph /  4.7km/h 7.0mph /  11.3km/h 10% 0.00in /  0mm 1081.0 W/m2
11:40 90.1 °F /  32.3 °C 26.2 °F /  -3.2 °C 30.24in /  1023.9hPa North 6.0mph /  9.7km/h 6.0mph /  9.7km/h 10% 0.00in /  0mm 1086.0 W/m2
11:45 90.0 °F /  32.2 °C 28.4 °F /  -2 °C 30.24in /  1023.9hPa WNW 0.9mph /  1.4km/h 5.0mph /  8km/h 11% 0.00in /  0mm 1107.0 W/m2
11:50 90.0 °F /  32.2 °C 28.4 °F /  -2 °C 30.24in /  1023.9hPa WSW 4.0mph /  6.4km/h 9.0mph /  14.5km/h 11% 0.00in /  0mm 1160.0 W/m2
11:55 90.1 °F /  32.3 °C 28.6 °F /  -1.9 °C 30.23in /  1023.6hPa Calm   3.0mph /  4.8km/h 11% 0.00in /  0mm 1114.0 W/m2
12:00 90.0 °F /  32.2 °C 28.4 °F /  -2 °C 30.23in /  1023.6hPa Calm   3.0mph /  4.8km/h 11% 0.00in /  0mm 1088.0 W/m2
12:05 90.3 °F /  32.4 °C 26.4 °F /  -3.1 °C 30.23in /  1023.6hPa Calm   1.0mph /  1.6km/h 10% 0.00in /  0mm 1088.0 W/m2
12:10 90.7 °F /  32.6 °C 28.9 °F /  -1.7 °C 30.23in /  1023.6hPa WNW 4.0mph /  6.4km/h 5.0mph /  8km/h 11% 0.00in /  0mm 1074.0 W/m2
12:15 91.0 °F /  32.8 °C 29.3 °F /  -1.5 °C 30.22in /  1023.2hPa WNW 4.0mph /  6.4km/h 8.0mph /  12.9km/h 11% 0.00in /  0mm 1107.0 W/m2
12:21 91.2 °F /  32.9 °C 29.3 °F /  -1.5 °C 30.22in /  1023.2hPa SW 2.0mph /  3.2km/h 5.0mph /  8km/h 11% 0.00in /  0mm 1123.0 W/m2
12:36 92.7 °F /  33.7 °C 30.6 °F /  -0.8 °C 30.21in /  1022.9hPa WNW 0.9mph /  1.4km/h 5.0mph /  8km/h 11% 0.00in /  0mm 1187.0 W/m2
12:46 93.4 °F /  34.1 °C 31.1 °F /  -0.5 °C 30.21in /  1022.9hPa NNE 6.0mph /  9.7km/h 8.0mph /  12.9km/h 11% 0.00in /  0mm 742.0 W/m2
12:51 93.6 °F /  34.2 °C 28.8 °F /  -1.8 °C 30.21in /  1022.9hPa NE 4.0mph /  6.4km/h 8.0mph /  12.9km/h 10% 0.00in /  0mm 1144.0 W/m2
12:56 93.4 °F /  34.1 °C 28.8 °F /  -1.8 °C 30.20in /  1022.6hPa Calm   4.0mph /  6.4km/h 10% 0.00in /  0mm 1144.0 W/m2
13:11 93.6 °F /  34.2 °C 31.1 °F /  -0.5 °C 30.19in /  1022.2hPa North 2.0mph /  3.2km/h 4.0mph /  6.4km/h 11% 0.00in /  0mm 810.0 W/m2
13:17 93.9 °F /  34.4 °C 31.5 °F /  -0.3 °C 30.19in /  1022.2hPa Calm   5.0mph /  8km/h 11% 0.00in /  0mm 1357.0 W/m2
13:22 94.6 °F /  34.8 °C 29.7 °F /  -1.3 °C 30.19in /  1022.2hPa NNW 6.0mph /  9.7km/h 10.0mph /  16.1km/h 10% 0.00in /  0mm 1301.0 W/m2
13:27 94.6 °F /  34.8 °C 29.7 °F /  -1.3 °C 30.19in /  1022.2hPa West 2.0mph /  3.2km/h 6.0mph /  9.7km/h 10% 0.00in /  0mm 782.0 W/m2
13:32 94.8 °F /  34.9 °C 29.8 °F /  -1.2 °C 30.18in /  1021.9hPa West 4.9mph /  7.9km/h 5.0mph /  8km/h 10% 0.00in /  0mm 1246.0 W/m2
13:37 95.4 °F /  35.2 °C 30.2 °F /  -1 °C 30.18in /  1021.9hPa West 2.0mph /  3.2km/h 7.0mph /  11.3km/h 10% 0.00in /  0mm 1153.0 W/m2
13:47 95.4 °F /  35.2 °C 30.2 °F /  -1 °C 30.18in /  1021.9hPa NNE 2.0mph /  3.2km/h 6.0mph /  9.7km/h 10% 0.00in /  0mm 396.0 W/m2
13:52 94.6 °F /  34.8 °C 32.0 °F /  0 °C 30.18in /  1021.9hPa WNW 2.0mph /  3.2km/h 6.0mph /  9.7km/h 11% 0.00in /  0mm 1278.0 W/m2
14:03 94.8 °F /  34.9 °C 29.8 °F /  -1.2 °C 30.18in /  1021.9hPa WNW 2.9mph /  4.7km/h 10.0mph /  16.1km/h 10% 0.00in /  0mm 1079.0 W/m2
14:09 95.4 °F /  35.2 °C 32.5 °F /  0.3 °C 30.18in /  1021.9hPa NNE 4.0mph /  6.4km/h 5.0mph /  8km/h 11% 0.00in /  0mm 1071.0 W/m2
14:14 95.5 °F /  35.3 °C 32.7 °F /  0.4 °C 30.17in /  1021.6hPa SE 0.9mph /  1.4km/h 9.0mph /  14.5km/h 11% 0.00in /  0mm 1137.0 W/m2
14:19 95.4 °F /  35.2 °C 32.5 °F /  0.3 °C 30.16in /  1021.2hPa SE 0.9mph /  1.4km/h 9.0mph /  14.5km/h 11% 0.00in /  0mm 1262.0 W/m2
14:29 94.5 °F /  34.7 °C 31.8 °F /  -0.1 °C 30.16in /  1021.2hPa WSW 2.0mph /  3.2km/h 8.0mph /  12.9km/h 11% 0.00in /  0mm 323.0 W/m2
14:34 93.7 °F /  34.3 °C 31.3 °F /  -0.4 °C 30.16in /  1021.2hPa West 2.0mph /  3.2km/h 4.0mph /  6.4km/h 11% 0.00in /  0mm 353.0 W/m2
14:39 93.4 °F /  34.1 °C 31.1 °F /  -0.5 °C 30.16in /  1021.2hPa WNW 2.0mph /  3.2km/h 9.0mph /  14.5km/h 11% 0.00in /  0mm 410.0 W/m2
14:44 93.0 °F /  33.9 °C 30.7 °F /  -0.7 °C 30.15in /  1020.9hPa WSW 2.0mph /  3.2km/h 11.0mph /  17.7km/h 11% 0.00in /  0mm 376.0 W/m2
14:49 92.8 °F /  33.8 °C 30.6 °F /  -0.8 °C 30.15in /  1020.9hPa NNW 4.0mph /  6.4km/h 10.0mph /  16.1km/h 11% 0.00in /  0mm 373.0 W/m2
14:55 93.4 °F /  34.1 °C 31.1 °F /  -0.5 °C 30.15in /  1020.9hPa Calm   9.0mph /  14.5km/h 11% 0.00in /  0mm 1051.0 W/m2
15:06 94.8 °F /  34.9 °C 32.2 °F /  0.1 °C 30.15in /  1020.9hPa WNW 2.0mph /  3.2km/h 9.0mph /  14.5km/h 11% 0.00in /  0mm 336.0 W/m2
15:11 94.6 °F /  34.8 °C 32.0 °F /  0 °C 30.15in /  1020.9hPa NW 4.0mph /  6.4km/h 6.0mph /  9.7km/h 11% 0.00in /  0mm 309.0 W/m2
15:21 93.6 °F /  34.2 °C 31.1 °F /  -0.5 °C 30.14in /  1020.5hPa SE 0.9mph /  1.4km/h 4.0mph /  6.4km/h 11% 0.00in /  0mm 359.0 W/m2
15:26 93.0 °F /  33.9 °C 32.9 °F /  0.5 °C 30.14in /  1020.5hPa SE 0.9mph /  1.4km/h 3.0mph /  4.8km/h 12% 0.00in /  0mm 471.0 W/m2
15:31 92.8 °F /  33.8 °C 30.6 °F /  -0.8 °C 30.14in /  1020.5hPa West 0.9mph /  1.4km/h 7.0mph /  11.3km/h 11% 0.00in /  0mm 761.0 W/m2
15:47 94.5 °F /  34.7 °C 31.8 °F /  -0.1 °C 30.13in /  1020.2hPa West 2.0mph /  3.2km/h 6.0mph /  9.7km/h 11% 0.00in /  0mm 970.0 W/m2
15:57 95.7 °F /  35.4 °C 32.9 °F /  0.5 °C 30.13in /  1020.2hPa SSE 2.9mph /  4.7km/h 6.0mph /  9.7km/h 11% 0.00in /  0mm 265.0 W/m2
16:07 94.8 °F /  34.9 °C 29.8 °F /  -1.2 °C 30.13in /  1020.2hPa Calm   2.0mph /  3.2km/h 10% 0.00in /  0mm 756.0 W/m2
16:12 94.6 °F /  34.8 °C 32.0 °F /  0 °C 30.12in /  1019.9hPa SSW 2.0mph /  3.2km/h 2.0mph /  3.2km/h 11% 0.00in /  0mm 302.0 W/m2
16:17 94.5 °F /  34.7 °C 31.8 °F /  -0.1 °C 30.12in /  1019.9hPa SE 4.0mph /  6.4km/h 6.0mph /  9.7km/h 11% 0.00in /  0mm 262.0 W/m2
16:27 93.4 °F /  34.1 °C 31.1 °F /  -0.5 °C 30.11in /  1019.5hPa SSW 2.0mph /  3.2km/h 4.0mph /  6.4km/h 11% 0.00in /  0mm 248.0 W/m2
16:48 93.7 °F /  34.3 °C 31.3 °F /  -0.4 °C 30.11in /  1019.5hPa NW 2.0mph /  3.2km/h 4.0mph /  6.4km/h 11% 0.00in /  0mm 272.0 W/m2
16:58 93.2 °F /  34 °C 30.9 °F /  -0.6 °C 30.11in /  1019.5hPa ENE 2.9mph /  4.7km/h 3.0mph /  4.8km/h 11% 0.00in /  0mm 181.0 W/m2
17:03 92.7 °F /  33.7 °C 30.6 °F /  -0.8 °C 30.11in /  1019.5hPa WNW 2.0mph /  3.2km/h 4.0mph /  6.4km/h 11% 0.00in /  0mm 179.0 W/m2
17:08 92.1 °F /  33.4 °C 30.0 °F /  -1.1 °C 30.10in /  1019.2hPa Calm   3.0mph /  4.8km/h 11% 0.00in /  0mm 185.0 W/m2
17:13 91.9 °F /  33.3 °C 32.0 °F /  0 °C 30.10in /  1019.2hPa Calm   5.0mph /  8km/h 12% 0.00in /  0mm 179.0 W/m2
17:18 91.8 °F /  33.2 °C 32.0 °F /  0 °C 30.10in /  1019.2hPa Calm   3.0mph /  4.8km/h 12% 0.00in /  0mm 234.0 W/m2
17:23 91.8 °F /  33.2 °C 32.0 °F /  0 °C 30.10in /  1019.2hPa NNW 2.0mph /  3.2km/h 6.0mph /  9.7km/h 12% 0.00in /  0mm 172.0 W/m2
17:34 91.8 °F /  33.2 °C 32.0 °F /  0 °C 30.10in /  1019.2hPa WNW 2.0mph /  3.2km/h 6.0mph /  9.7km/h 12% 0.00in /  0mm 229.0 W/m2
17:39 91.9 °F /  33.3 °C 32.0 °F /  0 °C 30.10in /  1019.2hPa NNW 2.0mph /  3.2km/h 8.0mph /  12.9km/h 12% 0.00in /  0mm 276.0 W/m2
17:44 91.8 °F /  33.2 °C 32.0 °F /  0 °C 30.10in /  1019.2hPa Calm   4.0mph /  6.4km/h 12% 0.00in /  0mm 128.0 W/m2
17:49 91.6 °F /  33.1 °C 31.8 °F /  -0.1 °C 30.10in /  1019.2hPa NNW 2.9mph /  4.7km/h 10.0mph /  16.1km/h 12% 0.00in /  0mm 127.0 W/m2
17:54 91.2 °F /  32.9 °C 31.5 °F /  -0.3 °C 30.10in /  1019.2hPa West 6.9mph /  11.1km/h 7.0mph /  11.3km/h 12% 0.00in /  0mm 114.0 W/m2
18:00 90.9 °F /  32.7 °C 31.3 °F /  -0.4 °C 30.11in /  1019.5hPa Calm   2.0mph /  3.2km/h 12% 0.00in /  0mm 120.0 W/m2
18:05 90.7 °F /  32.6 °C 31.1 °F /  -0.5 °C 30.11in /  1019.5hPa Calm   1.0mph /  1.6km/h 12% 0.00in /  0mm 171.0 W/m2
18:10 90.9 °F /  32.7 °C 31.3 °F /  -0.4 °C 30.10in /  1019.2hPa Calm   5.0mph /  8km/h 12% 0.00in /  0mm 195.0 W/m2
18:26 90.7 °F /  32.6 °C 33.1 °F /  0.6 °C 30.10in /  1019.2hPa Calm   5.0mph /  8km/h 13% 0.00in /  0mm 76.0 W/m2
18:31 90.3 °F /  32.4 °C 30.7 °F /  -0.7 °C 30.11in /  1019.5hPa WSW 2.9mph /  4.7km/h 3.0mph /  4.8km/h 12% 0.00in /  0mm 77.0 W/m2
18:36 90.1 °F /  32.3 °C 30.7 °F /  -0.7 °C 30.11in /  1019.5hPa WNW 0.9mph /  1.4km/h 3.0mph /  4.8km/h 12% 0.00in /  0mm 67.0 W/m2
18:41 90.0 °F /  32.2 °C 30.6 °F /  -0.8 °C 30.11in /  1019.5hPa Calm   3.0mph /  4.8km/h 12% 0.00in /  0mm 62.0 W/m2
18:46 90.0 °F /  32.2 °C 30.6 °F /  -0.8 °C 30.11in /  1019.5hPa Calm   4.0mph /  6.4km/h 12% 0.00in /  0mm 58.0 W/m2
18:51 89.8 °F /  32.1 °C 28.2 °F /  -2.1 °C 30.11in /  1019.5hPa SE 2.9mph /  4.7km/h 9.0mph /  14.5km/h 11% 0.00in /  0mm 51.0 W/m2
18:56 89.2 °F /  31.8 °C 27.9 °F /  -2.3 °C 30.12in /  1019.9hPa WNW 4.9mph /  7.9km/h 13.0mph /  20.9km/h 11% 0.00in /  0mm 40.0 W/m2
19:06 87.6 °F /  30.9 °C 28.8 °F /  -1.8 °C 30.12in /  1019.9hPa Calm   9.0mph /  14.5km/h 12% 0.00in /  0mm 26.0 W/m2
19:11 87.3 °F /  30.7 °C 28.4 °F /  -2 °C 30.12in /  1019.9hPa West 2.9mph /  4.7km/h 5.0mph /  8km/h 12% 0.00in /  0mm 21.0 W/m2
19:16 86.4 °F /  30.2 °C 31.5 °F /  -0.3 °C 30.14in /  1020.5hPa West 14.1mph /  22.7km/h 17.0mph /  27.4km/h 14% 0.00in /  0mm 16.0 W/m2
19:22 84.9 °F /  29.4 °C 32.2 °F /  0.1 °C 30.14in /  1020.5hPa WSW 6.9mph /  11.1km/h 12.0mph /  19.3km/h 15% 0.00in /  0mm 9.0 W/m2
19:27 84.0 °F /  28.9 °C 33.1 °F /  0.6 °C 30.14in /  1020.5hPa WSW 13.0mph /  20.9km/h 18.0mph /  29km/h 16% 0.00in /  0mm 0.0 W/m2
19:32 83.5 °F /  28.6 °C 32.5 °F /  0.3 °C 30.15in /  1020.9hPa WSW 4.9mph /  7.9km/h 12.0mph /  19.3km/h 16% 0.00in /  0mm 0.0 W/m2
19:42 82.8 °F /  28.2 °C 33.4 °F /  0.8 °C 30.15in /  1020.9hPa South 6.0mph /  9.7km/h 13.0mph /  20.9km/h 17% 0.00in /  0mm 0.0 W/m2
19:47 82.6 °F /  28.1 °C 33.4 °F /  0.8 °C 30.16in /  1021.2hPa West 2.9mph /  4.7km/h 10.0mph /  16.1km/h 17% 0.00in /  0mm 0.0 W/m2
19:52 82.2 °F /  27.9 °C 33.1 °F /  0.6 °C 30.16in /  1021.2hPa West 2.0mph /  3.2km/h 9.0mph /  14.5km/h 17% 0.00in /  0mm 0.0 W/m2
19:57 81.9 °F /  27.7 °C 32.7 °F /  0.4 °C 30.16in /  1021.2hPa SW 4.0mph /  6.4km/h 6.0mph /  9.7km/h 17% 0.00in /  0mm 0.0 W/m2
20:13 80.8 °F /  27.1 °C 31.8 °F /  -0.1 °C 30.17in /  1021.6hPa SW 8.9mph /  14.3km/h 13.0mph /  20.9km/h 17% 0.00in /  0mm 0.0 W/m2
20:18 80.6 °F /  27 °C 31.8 °F /  -0.1 °C 30.17in /  1021.6hPa SW 0.9mph /  1.4km/h 9.0mph /  14.5km/h 17% 0.00in /  0mm 0.0 W/m2
20:23 80.4 °F /  26.9 °C 31.6 °F /  -0.2 °C 30.17in /  1021.6hPa WSW 4.0mph /  6.4km/h 6.0mph /  9.7km/h 17% 0.00in /  0mm 0.0 W/m2
20:28 80.2 °F /  26.8 °C 31.5 °F /  -0.3 °C 30.17in /  1021.6hPa Calm   4.0mph /  6.4km/h 17% 0.00in /  0mm 0.0 W/m2
20:33 80.1 °F /  26.7 °C 31.3 °F /  -0.4 °C 30.18in /  1021.9hPa South 0.9mph /  1.4km/h 4.0mph /  6.4km/h 17% 0.00in /  0mm 0.0 W/m2
20:38 79.9 °F /  26.6 °C 31.1 °F /  -0.5 °C 30.18in /  1021.9hPa Calm   1.0mph /  1.6km/h 17% 0.00in /  0mm 0.0 W/m2
20:43 79.5 °F /  26.4 °C 30.9 °F /  -0.6 °C 30.19in /  1022.2hPa SE 0.9mph /  1.4km/h 3.0mph /  4.8km/h 17% 0.00in /  0mm 0.0 W/m2
20:48 79.2 °F /  26.2 °C 30.6 °F /  -0.8 °C 30.19in /  1022.2hPa SW 4.0mph /  6.4km/h 5.0mph /  8km/h 17% 0.00in /  0mm 0.0 W/m2
20:54 79.0 °F /  26.1 °C 31.8 °F /  -0.1 °C 30.19in /  1022.2hPa WSW 0.9mph /  1.4km/h 3.0mph /  4.8km/h 18% 0.00in /  0mm 0.0 W/m2
21:10 78.3 °F /  25.7 °C 31.3 °F /  -0.4 °C 30.20in /  1022.6hPa Calm   2.0mph /  3.2km/h 18% 0.00in /  0mm 0.0 W/m2
21:20 77.9 °F /  25.5 °C 30.9 °F /  -0.6 °C 30.20in /  1022.6hPa Calm   2.0mph /  3.2km/h 18% 0.00in /  0mm 0.0 W/m2
21:26 77.5 °F /  25.3 °C 30.7 °F /  -0.7 °C 30.20in /  1022.6hPa Calm   1.0mph /  1.6km/h 18% 0.00in /  0mm 0.0 W/m2
21:31 77.5 °F /  25.3 °C 30.7 °F /  -0.7 °C 30.20in /  1022.6hPa Calm   1.0mph /  1.6km/h 18% 0.00in /  0mm 0.0 W/m2
21:36 77.2 °F /  25.1 °C 30.4 °F /  -0.9 °C 30.20in /  1022.6hPa NNW 0.9mph /  1.4km/h 2.0mph /  3.2km/h 18% 0.00in /  0mm 0.0 W/m2
21:41 77.0 °F /  25 °C 31.6 °F /  -0.2 °C 30.21in /  1022.9hPa Calm     19% 0.00in /  0mm 0.0 W/m2
21:46 76.8 °F /  24.9 °C 31.5 °F /  -0.3 °C 30.21in /  1022.9hPa Calm     19% 0.00in /  0mm 0.0 W/m2
21:51 76.5 °F /  24.7 °C 31.1 °F /  -0.5 °C 30.21in /  1022.9hPa WSW 2.9mph /  4.7km/h 4.0mph /  6.4km/h 19% 0.00in /  0mm 0.0 W/m2
21:56 76.5 °F /  24.7 °C 31.1 °F /  -0.5 °C 30.20in /  1022.6hPa SW 2.0mph /  3.2km/h 5.0mph /  8km/h 19% 0.00in /  0mm 0.0 W/m2
22:01 76.5 °F /  24.7 °C 31.1 °F /  -0.5 °C 30.21in /  1022.9hPa WSW 4.9mph /  7.9km/h 5.0mph /  8km/h 19% 0.00in /  0mm 0.0 W/m2
22:06 76.6 °F /  24.8 °C 30.0 °F /  -1.1 °C 30.21in /  1022.9hPa SW 4.9mph /  7.9km/h 5.0mph /  8km/h 18% 0.00in /  0mm 0.0 W/m2
22:16 77.0 °F /  25 °C 30.2 °F /  -1 °C 30.21in /  1022.9hPa Calm   3.0mph /  4.8km/h 18% 0.00in /  0mm 0.0 W/m2
22:26 76.6 °F /  24.8 °C 30.0 °F /  -1.1 °C 30.22in /  1023.2hPa Calm   1.0mph /  1.6km/h 18% 0.00in /  0mm 0.0 W/m2
22:37 75.9 °F /  24.4 °C 30.7 °F /  -0.7 °C 30.22in /  1023.2hPa Calm     19% 0.00in /  0mm 0.0 W/m2
22:42 75.6 °F /  24.2 °C 30.4 °F /  -0.9 °C 30.22in /  1023.2hPa Calm     19% 0.00in /  0mm 0.0 W/m2
22:47 75.4 °F /  24.1 °C 31.5 °F /  -0.3 °C 30.22in /  1023.2hPa Calm     20% 0.00in /  0mm 0.0 W/m2
22:52 74.8 °F /  23.8 °C 32.4 °F /  0.2 °C 30.23in /  1023.6hPa Calm   2.0mph /  3.2km/h 21% 0.00in /  0mm 0.0 W/m2
22:57 74.5 °F /  23.6 °C 32.0 °F /  0 °C 30.23in /  1023.6hPa Calm     21% 0.00in /  0mm 0.0 W/m2
23:02 73.9 °F /  23.3 °C 31.5 °F /  -0.3 °C 30.22in /  1023.2hPa Calm     21% 0.00in /  0mm 0.0 W/m2
23:08 73.8 °F /  23.2 °C 31.5 °F /  -0.3 °C 30.22in /  1023.2hPa Calm   1.0mph /  1.6km/h 21% 0.00in /  0mm 0.0 W/m2
23:13 73.4 °F /  23 °C 31.1 °F /  -0.5 °C 30.22in /  1023.2hPa Calm     21% 0.00in /  0mm 0.0 W/m2
23:18 73.0 °F /  22.8 °C 30.7 °F /  -0.7 °C 30.22in /  1023.2hPa Calm     21% 0.00in /  0mm 0.0 W/m2
23:28 72.5 °F /  22.5 °C 31.5 °F /  -0.3 °C 30.22in /  1023.2hPa Calm   1.0mph /  1.6km/h 22% 0.00in /  0mm 0.0 W/m2
23:38 72.0 °F /  22.2 °C 31.1 °F /  -0.5 °C 30.22in /  1023.2hPa Calm     22% 0.00in /  0mm 0.0 W/m2
23:43 71.8 °F /  22.1 °C 30.9 °F /  -0.6 °C 30.22in /  1023.2hPa Calm     22% 0.00in /  0mm 0.0 W/m2
23:47 71.4 °F /  21.9 °C 30.6 °F /  -0.8 °C 30.22in /  1023.2hPa Calm   3.0mph /  4.8km/h 22% 0.00in /  0mm 0.0 W/m2
23:58 71.1 °F /  21.7 °C 30.2 °F /  -1 °C 30.22in /  1023.2hPa Calm   4.0mph /  6.4km/h 22% 0.00in /  0mm 0.0 W/m2
Olympia, Windhoek, Namibia
Compliments of Weather Underground - 3 mb